Pickett, Wisconsin
Current Conditions -  °F | °C
As of 1:53 PM on Wednesday 17 Dec 2014 (Local Time) from KOSH Reporting Station
Few Clouds Few Clouds  
Wind Chill: 11°   Ceiling: Unl
Heat Index: 24°   Visibility: 10mi
Dew Point: 14°   Wind: 16mph
Humidity: 65%   Direction: 310°NW
Pressure: 30.17"   Gusts: NA
Location:  43.91°N, 88.73°W
Report Text: KOSH 171953Z 31014KT 10SM FEW028 M04/M10 A3017 RMK AO2 SLP235 T10441100
Loading
Personal Weather Stations






























Interactive Weather Map New forecast layout! Learn more

10-Day Weather Forecast

Advertisements
Track Severe Weather on mobile